createdAt,value
2023-03-03T00:00:27.344Z,5.03
2023-03-03T00:01:27.517Z,5.35
2023-03-03T00:02:27.823Z,4.75
2023-03-03T00:03:28.024Z,4.73
2023-03-03T00:04:28.162Z,4.66
2023-03-03T00:05:28.342Z,4.55
2023-03-03T00:06:28.507Z,4.50
2023-03-03T00:07:28.705Z,4.30
2023-03-03T00:08:28.874Z,4.27
2023-03-03T00:09:29.108Z,4.30
2023-03-03T00:10:29.300Z,5.29
2023-03-03T00:11:29.503Z,5.00
2023-03-03T00:12:29.690Z,5.70
2023-03-03T00:13:29.852Z,4.92
2023-03-03T00:14:30.106Z,4.98
2023-03-03T00:15:30.294Z,4.72
2023-03-03T00:16:30.466Z,5.38
2023-03-03T00:17:30.645Z,5.90
2023-03-03T00:18:30.884Z,5.10
2023-03-03T00:19:31.096Z,5.64
2023-03-03T00:20:31.290Z,5.36
2023-03-03T00:21:31.460Z,6.50
2023-03-03T00:22:31.711Z,6.19
2023-03-03T00:23:31.884Z,5.76
2023-03-03T00:24:32.119Z,5.91
2023-03-03T00:25:32.317Z,5.81
2023-03-03T00:26:32.502Z,5.88
2023-03-03T00:27:32.677Z,5.91
2023-03-03T00:28:32.866Z,5.18
2023-03-03T00:29:33.069Z,5.69
2023-03-03T00:30:33.237Z,5.55
2023-03-03T00:31:33.485Z,5.34
2023-03-03T00:32:33.622Z,4.83
2023-03-03T00:33:33.811Z,4.79
2023-03-03T00:34:33.999Z,5.50
2023-03-03T00:35:34.261Z,6.13
2023-03-03T00:36:34.415Z,6.11
2023-03-03T00:37:34.709Z,6.43
2023-03-03T00:38:34.851Z,5.77
2023-03-03T00:39:35.111Z,5.33
2023-03-03T00:40:35.261Z,4.76
2023-03-03T00:41:35.495Z,4.47
2023-03-03T00:42:35.679Z,4.98
2023-03-03T00:43:35.852Z,4.48
2023-03-03T00:44:36.038Z,4.38
2023-03-03T00:45:36.233Z,4.62
2023-03-03T00:46:36.448Z,4.66
2023-03-03T00:47:36.634Z,3.47
2023-03-03T00:48:36.828Z,4.25
2023-03-03T00:53:37.808Z,5.11
2023-03-03T00:54:38.064Z,4.95
2023-03-03T00:55:38.330Z,5.24
2023-03-03T00:56:38.524Z,5.40
2023-03-03T00:57:38.724Z,5.44
2023-03-03T00:58:38.942Z,4.54
2023-03-03T00:59:39.124Z,4.53
2023-03-03T01:00:39.324Z,4.75
2023-03-03T01:01:39.557Z,3.57
2023-03-03T01:45:48.039Z,3.20
2023-03-03T02:41:57.875Z,4.48
2023-03-03T02:42:58.096Z,3.91
2023-03-03T02:43:58.282Z,4.77
2023-03-03T02:44:58.552Z,5.01
2023-03-03T02:45:58.683Z,4.63
2023-03-03T02:46:58.820Z,4.97
2023-03-03T02:47:59.007Z,4.16
2023-03-03T02:48:59.192Z,5.18
2023-03-03T02:49:59.352Z,4.94
2023-03-03T02:50:59.519Z,4.92
2023-03-03T02:51:59.691Z,4.71
2023-03-03T02:52:59.863Z,5.19
2023-03-03T02:54:00.016Z,4.36
2023-03-03T02:55:00.197Z,4.75
2023-03-03T02:56:00.372Z,5.58
2023-03-03T02:57:00.564Z,5.33
2023-03-03T02:58:00.757Z,4.94
2023-03-03T02:59:00.927Z,4.54
2023-03-03T03:00:01.108Z,4.39
2023-03-03T03:01:01.308Z,4.98
2023-03-03T03:02:01.466Z,4.70
2023-03-03T03:03:01.673Z,3.80
2023-03-03T03:04:01.914Z,4.30
2023-03-03T03:05:02.056Z,4.54
2023-03-03T03:06:02.244Z,4.66
2023-03-03T03:07:02.432Z,4.57
2023-03-03T03:08:02.626Z,4.40
2023-03-03T03:09:02.797Z,4.15
2023-03-03T03:10:02.996Z,4.55
2023-03-03T03:11:03.188Z,3.89
2023-03-03T03:12:03.384Z,4.40
2023-03-03T03:13:03.559Z,4.71
2023-03-03T03:14:03.760Z,3.98
2023-03-03T03:15:03.939Z,4.63
2023-03-03T03:16:04.129Z,4.44
2023-03-03T03:17:04.310Z,4.58
2023-03-03T03:18:04.501Z,4.51
2023-03-03T03:19:04.694Z,4.72
2023-03-03T03:20:04.855Z,3.21
2023-03-03T03:21:05.030Z,3.61
2023-03-03T03:22:05.249Z,3.99
2023-03-03T03:23:05.408Z,4.04
2023-03-03T03:37:07.942Z,4.76
2023-03-03T03:38:08.166Z,4.76
2023-03-03T03:39:08.350Z,4.42
2023-03-03T03:40:08.528Z,4.50
2023-03-03T03:41:08.727Z,4.80
2023-03-03T03:42:08.928Z,4.57
2023-03-03T03:43:09.120Z,4.28
2023-03-03T03:44:09.303Z,4.08
2023-03-03T03:45:09.485Z,4.32
2023-03-03T03:46:09.715Z,4.39
2023-03-03T03:47:09.775Z,4.17
2023-03-03T03:48:10.010Z,4.38
2023-03-03T03:49:10.197Z,5.02
2023-03-03T03:50:10.369Z,4.14
2023-03-03T03:51:10.543Z,4.42
2023-03-03T03:52:10.724Z,4.50
2023-03-03T03:53:10.910Z,4.85
2023-03-03T03:54:11.082Z,5.36
2023-03-03T03:55:11.241Z,4.88
2023-03-03T03:56:11.406Z,4.17
2023-03-03T03:57:11.568Z,3.81
2023-03-03T03:58:11.746Z,4.06
2023-03-03T03:59:11.936Z,4.33
2023-03-03T04:00:12.120Z,3.75
2023-03-03T04:01:12.327Z,4.37
2023-03-03T04:02:12.579Z,4.11
2023-03-03T04:03:12.747Z,4.00
2023-03-03T04:04:12.937Z,3.51
2023-03-03T04:05:13.058Z,3.68
2023-03-03T04:06:13.301Z,3.50
2023-03-03T04:07:13.503Z,3.51
2023-03-03T04:08:13.688Z,4.44
2023-03-03T04:09:13.864Z,3.73
2023-03-03T04:10:14.031Z,3.40
2023-03-03T04:11:14.203Z,3.82
2023-03-03T04:12:14.353Z,3.61
2023-03-03T04:13:14.535Z,3.29
2023-03-03T04:14:14.712Z,4.09
2023-03-03T04:15:14.878Z,4.10
2023-03-03T04:16:15.192Z,4.07
2023-03-03T04:17:15.144Z,4.13
2023-03-03T04:32:17.924Z,5.18
2023-03-03T04:33:18.131Z,4.18
2023-03-03T04:34:18.310Z,4.51
2023-03-03T04:35:18.538Z,4.50
2023-03-03T04:36:18.682Z,4.60
2023-03-03T04:37:18.875Z,4.84
2023-03-03T04:38:19.083Z,4.64
2023-03-03T04:39:19.262Z,4.94
2023-03-03T04:40:19.541Z,5.68
2023-03-03T04:41:19.688Z,5.76
2023-03-03T04:42:19.864Z,5.53
2023-03-03T04:43:20.072Z,5.48
2023-03-03T04:44:20.276Z,5.83
2023-03-03T04:45:20.493Z,5.93
2023-03-03T04:46:20.796Z,5.84
2023-03-03T04:47:20.930Z,6.15
2023-03-03T04:48:21.110Z,5.59
2023-03-03T04:49:21.298Z,5.52
2023-03-03T04:50:21.501Z,6.05
2023-03-03T04:51:21.687Z,5.25
2023-03-03T05:25:27.882Z,6.71
2023-03-03T05:26:28.058Z,5.83
2023-03-03T05:27:28.238Z,6.59
2023-03-03T05:28:28.419Z,7.54
2023-03-03T05:29:28.620Z,6.89
2023-03-03T05:30:28.805Z,6.23
2023-03-03T05:31:29.031Z,7.24
2023-03-03T05:32:29.185Z,6.80
2023-03-03T05:33:29.315Z,6.79
2023-03-03T05:34:29.492Z,6.61
2023-03-03T05:35:29.734Z,6.85
2023-03-03T05:36:29.852Z,6.65
2023-03-03T06:21:37.853Z,22.43
2023-03-03T06:22:38.037Z,23.37
2023-03-03T06:23:38.271Z,21.73
2023-03-03T06:24:38.267Z,18.70
2023-03-03T06:25:38.566Z,17.52
2023-03-03T06:26:38.721Z,15.68
2023-03-03T06:27:38.909Z,11.54
2023-03-03T06:28:39.065Z,12.47
2023-03-03T06:29:39.243Z,10.10
2023-03-03T06:30:39.441Z,10.78
2023-03-03T06:31:39.961Z,10.00
2023-03-03T06:32:39.866Z,10.62
2023-03-03T06:33:39.981Z,8.97
2023-03-03T06:34:40.177Z,8.67
2023-03-03T06:35:40.469Z,8.33
2023-03-03T06:36:40.695Z,9.40
2023-03-03T06:37:40.875Z,9.58
2023-03-03T06:38:41.921Z,11.07
2023-03-03T06:40:41.013Z,9.30
2023-03-03T06:41:40.993Z,8.62
2023-03-03T06:42:40.976Z,9.49
2023-03-03T07:17:41.241Z,7.98
2023-03-03T07:18:41.230Z,9.09
2023-03-03T07:19:41.236Z,8.81
2023-03-03T07:20:41.203Z,7.57
2023-03-03T07:21:41.346Z,7.81
2023-03-03T07:22:41.276Z,7.32
2023-03-03T07:24:41.309Z,7.37
2023-03-03T07:25:41.312Z,7.60
2023-03-03T07:26:41.322Z,8.12
2023-03-03T07:27:41.329Z,6.83
2023-03-03T07:28:41.334Z,7.31
2023-03-03T07:29:41.346Z,7.87
2023-03-03T07:30:41.348Z,7.57
2023-03-03T07:31:41.323Z,7.70
2023-03-03T07:32:41.498Z,8.03
2023-03-03T07:33:41.673Z,8.87
2023-03-03T07:34:41.842Z,8.65
2023-03-03T07:35:42.037Z,9.17
2023-03-03T07:36:42.171Z,7.77
2023-03-03T07:37:42.339Z,9.35
2023-03-03T07:38:42.490Z,10.30
2023-03-03T07:39:42.664Z,9.95
2023-03-03T07:40:42.779Z,9.59
2023-03-03T08:09:47.723Z,13.04
2023-03-03T08:10:47.824Z,12.56
2023-03-03T08:11:48.001Z,10.91
2023-03-03T08:12:48.190Z,11.15
2023-03-03T08:13:48.315Z,10.18
2023-03-03T08:14:48.394Z,11.56
2023-03-03T08:15:52.007Z,9.20
2023-03-03T08:16:48.547Z,9.10
2023-03-03T08:17:48.524Z,8.74
2023-03-03T08:18:48.399Z,9.76
2023-03-03T08:19:48.329Z,9.08
2023-03-03T08:20:48.295Z,9.19
2023-03-03T08:21:48.178Z,9.21
2023-03-03T08:22:48.098Z,9.37
2023-03-03T08:23:48.023Z,10.31
2023-03-03T08:24:47.964Z,9.46
2023-03-03T08:25:47.898Z,9.05
2023-03-03T08:26:47.822Z,9.79
2023-03-03T08:27:47.753Z,10.65
2023-03-03T08:28:48.436Z,8.80
2023-03-03T08:35:48.087Z,6.83
2023-03-03T08:42:46.597Z,8.28
2023-03-03T08:43:46.535Z,9.35
2023-03-03T08:44:46.479Z,9.42
2023-03-03T08:45:46.361Z,11.10
2023-03-03T09:10:17.877Z,6.38
2023-03-03T09:11:18.055Z,5.94
2023-03-03T09:12:18.245Z,6.81
2023-03-03T09:13:18.426Z,6.25
2023-03-03T09:14:18.634Z,7.17
2023-03-03T09:15:18.804Z,6.45
2023-03-03T09:16:18.996Z,6.40
2023-03-03T09:17:19.173Z,7.19
2023-03-03T09:18:19.334Z,7.10
2023-03-03T09:19:19.500Z,6.52
2023-03-03T09:20:19.687Z,6.97
2023-03-03T09:21:19.856Z,5.83
2023-03-03T09:22:20.029Z,6.27
2023-03-03T11:36:24.576Z,7.81
2023-03-03T11:37:24.736Z,7.70
2023-03-03T11:38:24.888Z,7.45
2023-03-03T11:39:25.051Z,7.64
2023-03-03T11:40:25.188Z,6.89
2023-03-03T11:41:25.336Z,7.45
2023-03-03T11:42:26.344Z,6.80
2023-03-03T11:43:36.191Z,7.53
2023-03-03T11:44:26.390Z,7.29
2023-03-03T11:45:25.371Z,7.56
2023-03-03T11:46:25.353Z,6.71
2023-03-03T11:47:26.644Z,7.35
2023-03-03T11:48:25.214Z,7.29
2023-03-03T11:49:25.194Z,7.17
2023-03-03T11:50:25.128Z,7.31
2023-03-03T11:51:25.090Z,7.10
2023-03-03T11:52:25.041Z,7.24
2023-03-03T11:53:25.012Z,7.32
2023-03-03T11:54:24.967Z,7.30
2023-03-03T11:56:24.913Z,5.75
2023-03-03T11:57:24.880Z,6.77
2023-03-03T13:14:27.739Z,7.21
2023-03-03T13:15:32.511Z,6.70
2023-03-03T13:16:40.408Z,6.63
2023-03-03T13:17:28.803Z,7.20
2023-03-03T15:24:28.441Z,8.93
2023-03-03T15:44:27.893Z,10.74
2023-03-03T15:45:28.001Z,11.53
2023-03-03T15:46:28.267Z,11.65
2023-03-03T15:47:28.438Z,11.09
2023-03-03T15:48:28.522Z,10.50
2023-03-03T15:49:28.784Z,11.12
2023-03-03T15:50:28.874Z,12.02
2023-03-03T15:51:28.812Z,11.43
2023-03-03T15:52:28.899Z,11.55
2023-03-03T15:53:29.104Z,11.44
2023-03-03T15:54:29.297Z,10.62
2023-03-03T16:47:37.835Z,22.60
2023-03-03T16:48:37.974Z,24.49
2023-03-03T16:49:38.115Z,24.65
2023-03-03T16:50:38.330Z,27.28
2023-03-03T16:51:38.498Z,25.69
2023-03-03T16:52:38.695Z,21.76
2023-03-03T16:53:39.375Z,24.36
2023-03-03T16:54:38.897Z,23.53
2023-03-03T16:55:38.925Z,24.40
2023-03-03T16:56:38.957Z,20.52
2023-03-03T16:57:38.970Z,20.25
2023-03-03T16:58:39.002Z,22.29
2023-03-03T16:59:39.005Z,19.48
2023-03-03T17:00:39.021Z,20.25
2023-03-03T17:01:39.074Z,20.10
2023-03-03T17:02:39.298Z,21.25
2023-03-03T17:03:39.496Z,21.12
2023-03-03T17:04:39.701Z,20.36
2023-03-03T17:05:39.835Z,22.03
2023-03-03T17:06:40.003Z,21.30
2023-03-03T17:07:40.158Z,19.78
2023-03-03T17:08:40.314Z,18.98
2023-03-03T17:09:40.471Z,19.22
2023-03-03T17:10:40.664Z,17.50
2023-03-03T17:11:40.824Z,17.45
2023-03-03T17:12:40.987Z,19.04
2023-03-03T17:13:41.153Z,16.43
2023-03-03T17:14:41.313Z,17.95
2023-03-03T17:15:41.474Z,17.13
2023-03-03T17:16:51.903Z,17.85
2023-03-03T17:18:41.535Z,19.86
2023-03-03T17:19:41.489Z,19.66
2023-03-03T17:20:41.452Z,20.36
2023-03-03T17:21:41.399Z,17.75
2023-03-03T17:22:41.366Z,19.67
2023-03-03T17:23:41.298Z,18.54
2023-03-03T17:24:41.260Z,18.13
2023-03-03T17:25:41.210Z,17.85
2023-03-03T17:26:41.198Z,18.25
2023-03-03T17:27:41.328Z,17.99
2023-03-03T17:28:41.590Z,19.59
2023-03-03T17:29:41.752Z,18.82
2023-03-03T17:30:41.918Z,19.71
2023-03-03T17:31:42.079Z,18.53
2023-03-03T17:32:42.292Z,18.49
2023-03-03T17:33:42.419Z,21.50
2023-03-03T17:34:42.596Z,19.19
2023-03-03T17:35:42.799Z,19.85
2023-03-03T17:36:42.901Z,19.69
2023-03-03T18:02:47.929Z,20.38
2023-03-03T18:03:48.143Z,19.14
2023-03-03T18:04:48.299Z,20.10
2023-03-03T18:05:48.492Z,19.77
2023-03-03T18:06:48.693Z,18.59
2023-03-03T18:07:48.883Z,18.83
2023-03-03T18:08:49.087Z,19.41
2023-03-03T18:09:49.270Z,18.92
2023-03-03T18:10:49.488Z,21.12
2023-03-03T18:16:50.748Z,20.12
2023-03-03T18:53:57.835Z,16.52
2023-03-03T18:54:58.036Z,17.19
2023-03-03T18:55:58.207Z,16.59
2023-03-03T18:56:58.468Z,18.26
2023-03-03T18:57:58.679Z,17.80
2023-03-03T18:58:58.876Z,17.47
2023-03-03T18:59:59.097Z,17.33
2023-03-03T19:00:59.303Z,16.96
2023-03-03T19:01:59.503Z,18.26
2023-03-03T19:02:59.705Z,18.23
2023-03-03T19:04:00.450Z,15.90
2023-03-03T19:04:59.948Z,16.56
2023-03-03T19:05:59.939Z,16.19
2023-03-03T19:06:59.977Z,17.27
2023-03-03T19:07:59.943Z,16.85
2023-03-03T19:08:59.907Z,17.73
2023-03-03T19:09:59.953Z,16.82
2023-03-03T19:10:59.942Z,16.95
2023-03-03T19:11:59.914Z,19.89
2023-03-03T19:12:59.918Z,17.98
2023-03-03T19:13:59.890Z,17.71
2023-03-03T19:14:59.877Z,17.58
2023-03-03T19:15:59.988Z,18.55
2023-03-03T19:16:59.918Z,17.49
2023-03-03T19:17:59.916Z,17.14
2023-03-03T19:18:59.911Z,17.87
2023-03-03T19:19:59.905Z,17.70
2023-03-03T19:20:59.909Z,17.35
2023-03-03T19:21:59.998Z,17.32
2023-03-03T19:23:00.045Z,17.03
2023-03-03T19:24:00.084Z,16.02
2023-03-03T19:25:00.090Z,20.00
2023-03-03T19:26:00.083Z,17.21
2023-03-03T19:27:00.127Z,17.41
2023-03-03T19:28:00.112Z,18.92
2023-03-03T19:30:00.173Z,19.21
2023-03-03T19:31:00.242Z,19.18
2023-03-03T19:32:00.240Z,19.69
2023-03-03T19:33:00.229Z,18.93
2023-03-03T19:34:00.253Z,19.31
2023-03-03T19:35:00.298Z,18.91
2023-03-03T19:36:00.379Z,17.30
2023-03-03T19:37:00.372Z,18.14
2023-03-03T19:38:00.752Z,18.29
2023-03-03T19:39:00.804Z,21.55
2023-03-03T19:40:01.002Z,20.69
2023-03-03T20:30:07.959Z,19.18
2023-03-03T20:43:07.723Z,22.91
2023-03-03T20:44:07.769Z,21.27
2023-03-03T20:45:07.892Z,21.20
2023-03-03T20:46:07.904Z,21.43
2023-03-03T20:47:07.898Z,21.92
2023-03-03T20:48:09.902Z,20.30
2023-03-03T20:49:07.941Z,20.45
2023-03-03T20:50:07.949Z,21.69
2023-03-03T20:51:07.925Z,21.60
2023-03-03T20:52:07.934Z,20.56
2023-03-03T20:53:07.920Z,21.14
2023-03-03T20:54:07.918Z,22.66
2023-03-03T20:55:10.492Z,21.60
2023-03-03T20:56:07.938Z,21.36
2023-03-03T20:57:07.943Z,21.11
2023-03-03T20:58:07.934Z,22.12
2023-03-03T20:59:07.940Z,22.78
2023-03-03T21:00:07.945Z,20.44
2023-03-03T21:01:07.963Z,21.14
2023-03-03T21:02:07.958Z,20.85
2023-03-03T21:03:07.982Z,21.64
2023-03-03T21:04:07.994Z,21.10
2023-03-03T21:05:07.949Z,20.81
2023-03-03T21:06:07.950Z,20.57
2023-03-03T21:07:07.945Z,20.34
2023-03-03T21:08:07.996Z,18.32
2023-03-03T21:09:07.944Z,19.48
2023-03-03T21:10:07.949Z,19.59
2023-03-03T21:11:07.984Z,20.50
2023-03-03T21:12:07.958Z,20.96
2023-03-03T21:13:07.962Z,20.76
2023-03-03T21:14:07.960Z,19.23
2023-03-03T21:15:07.975Z,21.27
2023-03-03T21:16:08.010Z,19.68
2023-03-03T21:17:07.963Z,19.86
2023-03-03T21:18:07.976Z,19.82
2023-03-03T21:19:07.979Z,20.99
2023-03-03T21:20:07.989Z,20.75
2023-03-03T21:21:07.993Z,20.66
2023-03-03T21:22:07.998Z,19.00
2023-03-03T21:23:08.023Z,19.51
2023-03-03T21:24:08.012Z,20.09
2023-03-03T21:25:08.017Z,19.78
2023-03-03T21:26:08.022Z,20.05
2023-03-03T21:27:08.033Z,19.88
2023-03-03T21:28:08.037Z,19.57
2023-03-03T21:29:08.027Z,17.85
2023-03-03T21:30:08.066Z,19.65
2023-03-03T21:31:08.068Z,20.23
2023-03-03T21:32:08.160Z,19.23
2023-03-03T21:33:08.040Z,18.96
2023-03-03T21:34:09.481Z,19.64
2023-03-03T21:35:08.046Z,20.78
2023-03-03T21:36:08.072Z,20.50
2023-03-03T21:37:08.117Z,19.22
2023-03-03T21:38:08.291Z,21.07
2023-03-03T21:39:08.486Z,20.81
2023-03-03T21:40:08.686Z,21.27
2023-03-03T21:41:08.870Z,20.59
2023-03-03T21:42:09.072Z,20.80
2023-03-03T21:43:09.255Z,20.09
2023-03-03T21:44:09.457Z,20.30
2023-03-03T21:45:09.648Z,20.44
2023-03-03T21:46:09.903Z,21.25
2023-03-03T21:47:10.081Z,21.51
2023-03-03T21:48:10.257Z,19.64
2023-03-03T21:49:10.455Z,18.71
2023-03-03T21:50:10.676Z,18.99
2023-03-03T21:51:10.854Z,18.84
2023-03-03T21:52:11.048Z,17.74
2023-03-03T21:53:11.247Z,17.73
2023-03-03T21:54:11.440Z,19.21
2023-03-03T21:55:11.636Z,17.34
2023-03-03T21:56:11.837Z,18.74
2023-03-03T21:57:12.048Z,18.79
2023-03-03T21:58:12.217Z,20.07
2023-03-03T21:59:12.409Z,20.28
2023-03-03T22:00:12.607Z,21.11
2023-03-03T22:01:12.861Z,21.77
2023-03-03T22:02:13.119Z,21.37
2023-03-03T22:36:17.774Z,23.20
2023-03-03T22:37:18.107Z,23.86
2023-03-03T22:38:18.321Z,21.93
2023-03-03T22:39:18.530Z,21.74
2023-03-03T22:40:18.759Z,21.41
2023-03-03T22:41:18.981Z,22.48
2023-03-03T23:23:27.780Z,21.70
2023-03-03T23:24:27.978Z,22.68
2023-03-03T23:25:28.168Z,21.46
2023-03-03T23:26:28.361Z,20.73
2023-03-03T23:27:28.578Z,22.61
2023-03-03T23:28:28.748Z,21.62
2023-03-03T23:29:28.904Z,22.15
2023-03-03T23:30:29.161Z,21.02
2023-03-03T23:31:29.395Z,21.47
2023-03-03T23:32:29.633Z,20.80
2023-03-03T23:33:29.697Z,22.10
2023-03-03T23:34:29.905Z,22.04
2023-03-03T23:35:30.120Z,22.19
2023-03-03T23:36:30.304Z,22.85
